createdAt,value
2022-11-20T00:01:28.418Z,87.59
2022-11-20T00:03:56.248Z,87.73
2022-11-20T00:06:23.672Z,87.68
2022-11-20T00:08:50.825Z,87.83
2022-11-20T00:11:22.852Z,87.80
2022-11-20T00:13:52.193Z,87.90
2022-11-20T00:16:21.878Z,87.58
2022-11-20T00:18:48.660Z,87.87
2022-11-20T00:21:17.706Z,87.87
2022-11-20T00:23:44.812Z,88.02
2022-11-20T00:26:14.147Z,88.07
2022-11-20T00:28:41.375Z,87.80
2022-11-20T00:31:13.894Z,87.79
2022-11-20T00:33:40.682Z,87.88
2022-11-20T00:36:09.845Z,88.17
2022-11-20T00:38:36.651Z,87.99
2022-11-20T00:41:06.222Z,87.73
2022-11-20T00:43:33.132Z,88.32
2022-11-20T00:46:00.384Z,88.27
2022-11-20T00:48:27.457Z,87.93
2022-11-20T00:50:54.568Z,88.31
2022-11-20T00:53:21.850Z,88.24
2022-11-20T00:56:01.725Z,88.10
2022-11-20T00:58:34.061Z,88.18
2022-11-20T01:01:08.466Z,87.97
2022-11-20T01:03:38.053Z,88.00
2022-11-20T01:06:13.745Z,88.48
2022-11-20T01:08:40.372Z,88.50
2022-11-20T01:11:12.628Z,88.44
2022-11-20T01:13:40.043Z,88.50
2022-11-20T01:16:28.633Z,88.33
2022-11-20T01:18:58.949Z,88.10
2022-11-20T01:21:28.857Z,88.21
2022-11-20T01:23:55.625Z,88.47
2022-11-20T01:26:25.325Z,88.37
2022-11-20T01:28:52.524Z,88.77
2022-11-20T01:31:23.990Z,88.75
2022-11-20T01:33:53.023Z,88.36
2022-11-20T01:36:22.081Z,88.50
2022-11-20T01:38:48.615Z,88.54
2022-11-20T01:41:34.871Z,88.66
2022-11-20T01:44:01.777Z,88.60
2022-11-20T01:46:28.477Z,88.92
2022-11-20T01:49:02.104Z,88.94
2022-11-20T01:51:42.645Z,89.09
2022-11-20T01:54:25.653Z,88.75
2022-11-20T01:56:57.596Z,88.94
2022-11-20T01:59:26.984Z,89.05
2022-11-20T02:01:54.215Z,88.95
2022-11-20T02:04:21.698Z,88.82
2022-11-20T02:06:59.786Z,88.84
2022-11-20T02:09:26.534Z,89.30
2022-11-20T02:11:53.807Z,88.95
2022-11-20T02:14:21.744Z,89.50
2022-11-20T02:16:49.821Z,89.32
2022-11-20T02:19:24.385Z,89.04
2022-11-20T02:22:18.542Z,89.57
2022-11-20T02:24:47.275Z,89.31
2022-11-20T02:27:16.202Z,89.82
2022-11-20T02:29:49.300Z,89.62
2022-11-20T02:32:20.186Z,89.89
2022-11-20T02:34:46.624Z,89.96
2022-11-20T02:37:13.678Z,89.98
2022-11-20T02:39:41.420Z,89.82
2022-11-20T02:42:07.931Z,90.13
2022-11-20T02:44:34.350Z,90.08
2022-11-20T02:47:00.901Z,89.71
2022-11-20T02:49:27.357Z,90.09
2022-11-20T02:51:53.944Z,89.91
2022-11-20T02:54:20.315Z,90.16
2022-11-20T02:56:46.733Z,89.77
2022-11-20T02:59:13.130Z,89.24
2022-11-20T03:01:39.926Z,89.58
2022-11-20T03:04:06.433Z,89.60
2022-11-20T03:06:33.431Z,89.33
2022-11-20T03:08:59.921Z,89.71
2022-11-20T03:11:26.380Z,89.53
2022-11-20T03:13:52.875Z,89.60
2022-11-20T03:16:21.965Z,89.56
2022-11-20T03:18:48.949Z,89.68
2022-11-20T03:21:16.249Z,89.60
2022-11-20T03:23:42.716Z,89.63
2022-11-20T03:26:12.239Z,90.13
2022-11-20T03:28:38.979Z,89.60
2022-11-20T03:31:13.170Z,90.00
2022-11-20T03:33:41.584Z,89.95
2022-11-20T03:36:10.674Z,90.34
2022-11-20T03:38:37.852Z,89.92
2022-11-20T03:41:07.243Z,90.34
2022-11-20T03:43:33.888Z,90.24
2022-11-20T03:46:00.901Z,90.44
2022-11-20T03:48:28.134Z,90.22
2022-11-20T03:51:07.847Z,90.32
2022-11-20T03:53:34.389Z,89.94
2022-11-20T03:56:00.826Z,89.99
2022-11-20T03:58:27.221Z,89.80
2022-11-20T04:00:53.660Z,89.98
2022-11-20T04:03:20.063Z,89.97
2022-11-20T04:05:46.553Z,90.20
2022-11-20T04:08:12.979Z,89.90
2022-11-20T04:10:39.392Z,90.15
2022-11-20T04:13:05.827Z,89.91
2022-11-20T04:15:38.125Z,89.97
2022-11-20T04:18:04.934Z,90.18
2022-11-20T04:20:31.365Z,89.29
2022-11-20T04:22:57.766Z,89.73
2022-11-20T04:25:24.274Z,90.28
2022-11-20T04:27:50.686Z,89.84
2022-11-20T04:30:17.246Z,90.03
2022-11-20T04:32:43.717Z,89.68
2022-11-20T04:35:10.132Z,89.40
2022-11-20T04:37:36.530Z,89.88
2022-11-20T04:40:03.102Z,89.70
2022-11-20T04:42:29.499Z,90.42
2022-11-20T04:44:56.329Z,90.01
2022-11-20T04:47:22.829Z,89.60
2022-11-20T04:49:49.280Z,90.00
2022-11-20T04:52:15.751Z,90.16
2022-11-20T04:54:42.138Z,89.98
2022-11-20T04:57:13.082Z,89.79
2022-11-20T04:59:40.834Z,89.65
2022-11-20T05:02:07.388Z,90.05
2022-11-20T05:04:33.854Z,89.69
2022-11-20T05:07:00.269Z,90.08
2022-11-20T05:09:26.754Z,89.91
2022-11-20T05:11:53.148Z,90.19
2022-11-20T05:14:19.664Z,89.99
2022-11-20T05:16:46.372Z,90.26
2022-11-20T05:19:13.031Z,89.88
2022-11-20T05:21:39.467Z,90.74
2022-11-20T05:24:06.825Z,90.50
2022-11-20T05:26:33.659Z,90.50
2022-11-20T05:29:00.051Z,90.46
2022-11-20T05:31:28.437Z,90.52
2022-11-20T05:33:57.026Z,90.37
2022-11-20T05:36:24.196Z,90.50
2022-11-20T05:38:51.334Z,90.21
2022-11-20T05:41:19.961Z,90.31
2022-11-20T05:43:47.539Z,90.39
2022-11-20T05:46:16.142Z,90.36
2022-11-20T05:48:43.936Z,90.06
2022-11-20T05:51:12.158Z,90.45
2022-11-20T05:53:41.309Z,90.36
2022-11-20T05:56:12.378Z,90.41
2022-11-20T05:58:39.108Z,90.13
2022-11-20T06:01:16.089Z,90.86
2022-11-20T06:03:44.634Z,90.71
2022-11-20T06:06:11.061Z,90.67
2022-11-20T06:08:37.497Z,90.88
2022-11-20T06:11:06.085Z,90.19
2022-11-20T06:13:32.859Z,90.07
2022-11-20T06:15:59.498Z,90.87
2022-11-20T06:18:28.121Z,90.23
2022-11-20T06:21:12.937Z,90.30
2022-11-20T06:23:39.438Z,90.86
2022-11-20T06:26:08.844Z,91.12
2022-11-20T06:28:35.561Z,91.12
2022-11-20T06:31:02.352Z,90.99
2022-11-20T06:33:29.196Z,91.17
2022-11-20T06:36:02.644Z,91.25
2022-11-20T06:38:32.618Z,90.82
2022-11-20T06:40:59.069Z,90.73
2022-11-20T06:43:26.514Z,91.00
2022-11-20T06:45:57.478Z,91.06
2022-11-20T06:48:26.199Z,91.29
2022-11-20T06:50:52.642Z,91.44
2022-11-20T06:53:19.241Z,90.39
2022-11-20T06:55:47.194Z,90.74
2022-11-20T06:58:15.146Z,90.56
2022-11-20T07:00:42.113Z,90.63
2022-11-20T07:03:11.289Z,90.91
2022-11-20T07:05:38.322Z,90.86
2022-11-20T07:08:05.719Z,90.95
2022-11-20T07:10:32.678Z,90.75
2022-11-20T07:12:59.160Z,90.74
2022-11-20T07:15:26.434Z,90.50
2022-11-20T07:17:53.114Z,90.70
2022-11-20T07:20:19.684Z,90.76
2022-11-20T07:22:46.253Z,91.35
2022-11-20T07:25:12.801Z,90.94
2022-11-20T07:27:39.315Z,90.83
2022-11-20T07:30:06.405Z,91.24
2022-11-20T07:32:32.819Z,90.77
2022-11-20T07:34:59.216Z,91.15
2022-11-20T07:37:25.863Z,91.26
2022-11-20T07:39:52.309Z,91.63
2022-11-20T07:42:18.768Z,91.43
2022-11-20T07:44:45.204Z,91.00
2022-11-20T07:47:11.701Z,91.57
2022-11-20T07:49:38.169Z,91.60
2022-11-20T07:52:05.443Z,91.27
2022-11-20T07:54:32.789Z,91.20
2022-11-20T07:56:59.240Z,91.99
2022-11-20T07:59:25.707Z,91.26
2022-11-20T08:01:52.199Z,91.70
2022-11-20T08:04:18.630Z,91.34
2022-11-20T08:06:45.037Z,91.63
2022-11-20T08:09:11.599Z,91.86
2022-11-20T08:11:56.781Z,91.72
2022-11-20T08:14:23.226Z,91.98
2022-11-20T08:16:50.393Z,91.86
2022-11-20T08:19:19.831Z,92.14
2022-11-20T08:21:46.663Z,91.84
2022-11-20T08:24:13.724Z,92.22
2022-11-20T08:26:42.211Z,92.65
2022-11-20T08:29:08.651Z,92.37
2022-11-20T08:31:35.670Z,91.98
2022-11-20T08:34:06.310Z,92.44
2022-11-20T08:36:36.006Z,92.77
2022-11-20T08:39:03.497Z,92.34
2022-11-20T08:41:32.646Z,92.71
2022-11-20T08:44:01.773Z,92.41
2022-11-20T08:46:38.063Z,92.95
2022-11-20T08:49:05.712Z,93.03
2022-11-20T08:51:32.210Z,93.19
2022-11-20T08:53:58.928Z,93.04
2022-11-20T08:56:25.462Z,93.58
2022-11-20T08:59:20.102Z,92.97
2022-11-20T09:01:40.454Z,93.54
2022-11-20T09:04:06.908Z,93.73
2022-11-20T09:06:33.420Z,93.44
2022-11-20T09:09:06.093Z,93.90
2022-11-20T09:11:33.230Z,93.95
2022-11-20T09:13:59.653Z,93.85
2022-11-20T09:16:26.093Z,94.01
2022-11-20T09:19:07.271Z,94.04
2022-11-20T09:21:38.953Z,94.23
2022-11-20T09:24:06.207Z,94.04
2022-11-20T09:26:32.604Z,94.39
2022-11-20T09:28:59.019Z,94.57
2022-11-20T09:31:27.037Z,94.53
2022-11-20T09:33:53.473Z,94.50
2022-11-20T09:36:20.292Z,94.54
2022-11-20T09:38:47.804Z,94.61
2022-11-20T09:41:23.243Z,95.08
2022-11-20T09:44:03.952Z,94.62
2022-11-20T09:46:39.902Z,94.98
2022-11-20T09:49:38.782Z,94.95
2022-11-20T09:52:21.539Z,95.04
2022-11-20T09:54:48.330Z,94.84
2022-11-20T09:57:26.842Z,94.89
2022-11-20T10:00:00.320Z,95.16
2022-11-20T10:02:30.276Z,95.01
2022-11-20T10:04:56.697Z,95.31
2022-11-20T10:07:32.770Z,95.60
2022-11-20T10:10:00.258Z,94.91
2022-11-20T10:12:37.045Z,95.02
2022-11-20T10:15:23.568Z,95.31
2022-11-20T10:18:09.054Z,95.32
2022-11-20T10:20:47.240Z,95.28
2022-11-20T10:23:29.203Z,95.01
2022-11-20T10:26:41.317Z,95.32
2022-11-20T10:29:16.770Z,95.09
2022-11-20T10:31:52.073Z,95.27
2022-11-20T10:34:57.063Z,94.89
2022-11-20T10:37:28.704Z,95.00
2022-11-20T10:40:04.910Z,94.94
2022-11-20T10:42:38.687Z,94.89
2022-11-20T10:45:25.365Z,95.44
2022-11-20T10:47:55.273Z,95.12
2022-11-20T10:50:23.845Z,95.23
2022-11-20T10:53:00.237Z,95.01
2022-11-20T10:55:33.979Z,95.18
2022-11-20T10:58:53.729Z,95.31
2022-11-20T11:01:24.813Z,95.07
2022-11-20T11:03:56.342Z,95.31
2022-11-20T11:06:41.577Z,95.49
2022-11-20T11:09:18.298Z,95.86
2022-11-20T11:11:44.746Z,95.58
2022-11-20T11:14:16.297Z,96.07
2022-11-20T11:16:54.589Z,95.68
2022-11-20T11:19:22.074Z,95.84
2022-11-20T11:21:55.561Z,95.75
2022-11-20T11:24:45.982Z,95.65
2022-11-20T11:27:17.259Z,96.03
2022-11-20T11:29:44.900Z,96.23
2022-11-20T11:32:15.431Z,96.33
2022-11-20T11:34:42.278Z,96.84
2022-11-20T11:37:20.494Z,96.34
2022-11-20T11:39:55.082Z,96.48
2022-11-20T11:42:31.295Z,96.79
2022-11-20T11:45:07.133Z,96.82
2022-11-20T11:47:38.542Z,96.56
2022-11-20T11:50:10.972Z,96.60
2022-11-20T11:52:39.277Z,96.74
2022-11-20T11:55:11.490Z,97.21
2022-11-20T11:57:38.467Z,97.36
2022-11-20T12:00:15.331Z,97.20
2022-11-20T12:02:50.995Z,97.84
2022-11-20T12:05:31.746Z,97.50
2022-11-20T12:08:14.364Z,97.96
2022-11-20T12:11:12.526Z,97.99
2022-11-20T12:13:55.287Z,97.86
2022-11-20T12:16:22.081Z,98.21
2022-11-20T12:18:53.622Z,98.36
2022-11-20T12:21:47.889Z,98.65
2022-11-20T12:24:48.568Z,98.74
2022-11-20T12:27:14.998Z,98.86
2022-11-20T12:29:57.968Z,98.81
2022-11-20T12:32:48.659Z,98.86
2022-11-20T12:35:37.245Z,99.09
2022-11-20T12:38:30.411Z,99.25
2022-11-20T12:41:41.295Z,99.34
2022-11-20T12:44:50.524Z,99.36
2022-11-20T12:47:44.033Z,99.55
2022-11-20T12:51:00.205Z,99.46
2022-11-20T12:53:31.072Z,99.50
2022-11-20T12:56:20.616Z,99.79
2022-11-20T12:59:05.769Z,99.69
2022-11-20T13:01:41.231Z,99.90
2022-11-20T13:04:17.995Z,99.76
2022-11-20T13:06:45.199Z,100.00
2022-11-20T13:09:20.333Z,100.00
2022-11-20T13:11:53.663Z,100.00
2022-11-20T13:14:34.960Z,100.00
2022-11-20T13:17:31.846Z,100.00
2022-11-20T13:20:02.204Z,100.00
2022-11-20T13:22:49.952Z,100.00
2022-11-20T13:25:30.866Z,100.00
2022-11-20T13:28:04.704Z,100.00
2022-11-20T13:30:32.250Z,100.00
2022-11-20T13:33:07.655Z,100.00
2022-11-20T13:35:42.455Z,100.00
2022-11-20T13:38:14.558Z,100.00
2022-11-20T13:40:58.889Z,100.00
2022-11-20T13:43:44.108Z,100.00
2022-11-20T13:46:11.133Z,100.00
2022-11-20T13:48:43.512Z,100.00
2022-11-20T13:51:18.802Z,100.00
2022-11-20T13:54:23.066Z,100.00
2022-11-20T13:57:26.463Z,100.00
2022-11-20T14:00:11.610Z,100.00
2022-11-20T14:02:38.886Z,100.00
2022-11-20T14:05:06.242Z,100.00
2022-11-20T14:07:38.616Z,100.00
2022-11-20T14:10:05.888Z,100.00
2022-11-20T14:12:34.897Z,100.00
2022-11-20T14:15:01.688Z,100.00
2022-11-20T14:17:36.580Z,100.00
2022-11-20T14:20:06.310Z,100.00
2022-11-20T14:22:33.072Z,100.00
2022-11-20T14:25:07.894Z,100.00
2022-11-20T14:27:37.381Z,100.00
2022-11-20T14:30:05.905Z,100.00
2022-11-20T14:32:32.904Z,100.00
2022-11-20T14:35:10.928Z,100.00
2022-11-20T14:37:39.773Z,100.00
2022-11-20T14:40:38.422Z,100.00
2022-11-20T14:43:24.409Z,100.00
2022-11-20T14:46:03.480Z,100.00
2022-11-20T14:48:40.460Z,100.00
2022-11-20T14:51:06.951Z,100.00
2022-11-20T14:53:33.512Z,100.00
2022-11-20T14:56:02.123Z,100.00
2022-11-20T14:58:31.273Z,100.00
2022-11-20T15:01:00.881Z,100.00
2022-11-20T15:03:41.779Z,100.00
2022-11-20T15:06:11.631Z,100.00
2022-11-20T15:08:38.440Z,100.00
2022-11-20T15:11:19.058Z,100.00
2022-11-20T15:13:45.628Z,100.00
2022-11-20T15:16:23.548Z,100.00
2022-11-20T15:18:50.218Z,100.00
2022-11-20T15:21:19.587Z,100.00
2022-11-20T15:23:46.140Z,100.00
2022-11-20T15:26:19.474Z,100.00
2022-11-20T15:28:48.783Z,100.00
2022-11-20T15:31:17.548Z,100.00
2022-11-20T15:33:44.059Z,100.00
2022-11-20T15:36:10.930Z,100.00
2022-11-20T15:38:37.882Z,100.00
2022-11-20T15:41:04.489Z,100.00
2022-11-20T15:43:30.952Z,100.00
2022-11-20T15:46:03.234Z,100.00
2022-11-20T15:48:35.149Z,100.00
2022-11-20T15:51:32.295Z,100.00
2022-11-20T15:53:59.125Z,100.00
2022-11-20T15:56:26.901Z,100.00
2022-11-20T15:58:53.977Z,100.00
2022-11-20T16:01:23.149Z,100.00
2022-11-20T16:03:50.005Z,100.00
2022-11-20T16:06:17.268Z,100.00
2022-11-20T16:08:43.764Z,100.00
2022-11-20T16:11:14.812Z,100.00
2022-11-20T16:14:00.640Z,100.00
2022-11-20T16:16:31.154Z,100.00
2022-11-20T16:18:58.502Z,100.00
2022-11-20T16:21:31.605Z,100.00
2022-11-20T16:24:05.810Z,100.00
2022-11-20T16:26:33.413Z,100.00
2022-11-20T16:29:01.026Z,100.00
2022-11-20T16:31:27.477Z,100.00
2022-11-20T16:33:56.190Z,100.00
2022-11-20T16:36:26.622Z,100.00
2022-11-20T16:38:57.133Z,100.00
2022-11-20T16:41:26.593Z,100.00
2022-11-20T16:43:56.977Z,100.00
2022-11-20T16:46:24.680Z,100.00
2022-11-20T16:48:56.992Z,100.00
2022-11-20T16:51:24.829Z,100.00
2022-11-20T16:53:51.399Z,100.00
2022-11-20T16:56:20.472Z,100.00
2022-11-20T16:58:48.731Z,100.00
2022-11-20T17:01:18.062Z,100.00
2022-11-20T17:03:46.244Z,100.00
2022-11-20T17:06:18.205Z,100.00
2022-11-20T17:08:45.621Z,100.00
2022-11-20T17:11:14.419Z,100.00
2022-11-20T17:13:41.015Z,100.00
2022-11-20T17:16:12.751Z,100.00
2022-11-20T17:18:40.200Z,100.00
2022-11-20T17:21:07.518Z,100.00
2022-11-20T17:23:40.627Z,100.00
2022-11-20T17:26:18.587Z,100.00
2022-11-20T17:28:46.624Z,100.00
2022-11-20T17:31:15.676Z,100.00
2022-11-20T17:33:44.019Z,100.00
2022-11-20T17:36:12.604Z,100.00
2022-11-20T17:38:39.089Z,100.00
2022-11-20T17:41:15.055Z,100.00
2022-11-20T17:43:42.851Z,100.00
2022-11-20T17:46:11.940Z,100.00
2022-11-20T17:48:42.294Z,100.00
2022-11-20T17:51:13.896Z,100.00
2022-11-20T17:53:43.928Z,100.00
2022-11-20T17:56:30.036Z,100.00
2022-11-20T17:58:56.790Z,100.00
2022-11-20T18:01:24.016Z,100.00
2022-11-20T18:03:50.750Z,100.00
2022-11-20T18:06:22.985Z,100.00
2022-11-20T18:08:50.333Z,100.00
2022-11-20T18:11:20.645Z,100.00
2022-11-20T18:14:08.869Z,100.00
2022-11-20T18:16:38.278Z,100.00
2022-11-20T18:19:05.369Z,100.00
2022-11-20T18:21:32.264Z,100.00
2022-11-20T18:23:58.841Z,100.00
2022-11-20T18:26:26.448Z,100.00
2022-11-20T18:28:53.448Z,100.00
2022-11-20T18:31:20.781Z,100.00
2022-11-20T18:33:47.335Z,100.00
2022-11-20T18:36:20.942Z,100.00
2022-11-20T18:38:50.883Z,100.00
2022-11-20T18:41:43.070Z,100.00
2022-11-20T18:46:46.692Z,100.00
2022-11-20T18:49:13.611Z,100.00
2022-11-20T18:51:40.789Z,100.00
2022-11-20T18:54:07.581Z,100.00
2022-11-20T18:56:36.609Z,100.00
2022-11-20T18:59:04.477Z,100.00
2022-11-20T19:01:31.250Z,100.00
2022-11-20T19:03:58.234Z,100.00
2022-11-20T19:06:25.799Z,100.00
2022-11-20T19:08:53.279Z,100.00
2022-11-20T19:11:20.120Z,100.00
2022-11-20T19:13:46.797Z,100.00
2022-11-20T19:16:18.436Z,100.00
2022-11-20T19:18:45.422Z,100.00
2022-11-20T19:21:14.979Z,100.00
2022-11-20T19:23:41.710Z,100.00
2022-11-20T19:26:08.150Z,100.00
2022-11-20T19:28:36.289Z,100.00
2022-11-20T19:31:05.234Z,100.00
2022-11-20T19:33:32.188Z,100.00
2022-11-20T19:36:16.715Z,100.00
2022-11-20T19:38:47.974Z,100.00
2022-11-20T19:41:15.676Z,100.00
2022-11-20T19:43:42.141Z,100.00
2022-11-20T19:46:08.637Z,100.00
2022-11-20T19:48:37.548Z,100.00
2022-11-20T19:51:11.156Z,100.00
2022-11-20T19:53:38.173Z,100.00
2022-11-20T19:56:05.602Z,100.00
2022-11-20T19:58:33.284Z,100.00
2022-11-20T20:01:17.671Z,100.00
2022-11-20T20:03:45.530Z,100.00
2022-11-20T20:06:14.819Z,100.00
2022-11-20T20:08:42.355Z,100.00
2022-11-20T20:11:19.920Z,100.00
2022-11-20T20:13:47.312Z,100.00
2022-11-20T20:16:16.389Z,100.00
2022-11-20T20:18:43.447Z,100.00
2022-11-20T20:21:12.523Z,100.00
2022-11-20T20:23:40.110Z,100.00
2022-11-20T20:26:07.877Z,100.00
2022-11-20T20:28:35.544Z,100.00
2022-11-20T20:31:10.867Z,100.00
2022-11-20T20:33:38.595Z,100.00
2022-11-20T20:36:06.810Z,100.00
2022-11-20T20:38:33.784Z,100.00
2022-11-20T20:41:00.673Z,100.00
2022-11-20T20:43:27.621Z,100.00
2022-11-20T20:45:55.307Z,100.00
2022-11-20T20:48:23.308Z,100.00
2022-11-20T20:50:57.866Z,100.00
2022-11-20T20:53:25.136Z,100.00
2022-11-20T20:55:59.626Z,100.00
2022-11-20T20:58:27.939Z,100.00
2022-11-20T21:00:54.883Z,100.00
2022-11-20T21:03:21.726Z,100.00
2022-11-20T21:05:55.994Z,100.00
2022-11-20T21:08:22.711Z,100.00
2022-11-20T21:10:50.117Z,100.00
2022-11-20T21:13:16.554Z,100.00
2022-11-20T21:15:43.408Z,100.00
2022-11-20T21:18:09.792Z,100.00
2022-11-20T21:20:58.405Z,100.00
2022-11-20T21:23:24.795Z,100.00
2022-11-20T21:25:51.214Z,100.00
2022-11-20T21:28:18.508Z,100.00
2022-11-20T21:30:45.124Z,100.00
2022-11-20T21:33:11.642Z,100.00
2022-11-20T21:35:38.398Z,100.00
2022-11-20T21:38:05.039Z,100.00
2022-11-20T21:40:31.436Z,100.00
2022-11-20T21:42:57.910Z,100.00
2022-11-20T21:45:24.512Z,100.00
2022-11-20T21:47:51.967Z,100.00
2022-11-20T21:50:18.996Z,100.00
2022-11-20T21:52:45.473Z,100.00
2022-11-20T21:55:11.971Z,100.00
2022-11-20T21:57:38.417Z,100.00
2022-11-20T22:00:05.528Z,100.00
2022-11-20T22:02:32.046Z,100.00
2022-11-20T22:04:58.492Z,100.00
2022-11-20T22:07:24.939Z,100.00
2022-11-20T22:09:51.409Z,100.00
2022-11-20T22:12:17.801Z,100.00
2022-11-20T22:14:45.835Z,100.00
2022-11-20T22:17:14.411Z,100.00
2022-11-20T22:19:40.831Z,100.00
2022-11-20T22:22:07.269Z,100.00
2022-11-20T22:24:33.693Z,100.00
2022-11-20T22:27:00.194Z,100.00
2022-11-20T22:29:26.615Z,100.00
2022-11-20T22:31:53.194Z,100.00
2022-11-20T22:34:19.788Z,100.00
2022-11-20T22:36:46.273Z,100.00
2022-11-20T22:39:13.232Z,100.00
2022-11-20T22:41:39.742Z,100.00
2022-11-20T22:44:07.803Z,100.00
2022-11-20T22:46:36.384Z,100.00
2022-11-20T22:49:05.377Z,100.00
2022-11-20T22:51:34.532Z,100.00
2022-11-20T22:54:03.376Z,100.00
2022-11-20T22:56:30.578Z,100.00
2022-11-20T22:58:57.022Z,100.00
2022-11-20T23:01:28.899Z,100.00
2022-11-20T23:04:00.693Z,100.00
2022-11-20T23:06:28.191Z,100.00
2022-11-20T23:08:54.778Z,100.00
2022-11-20T23:11:24.070Z,100.00
2022-11-20T23:13:56.435Z,100.00
2022-11-20T23:16:24.281Z,100.00
2022-11-20T23:19:01.780Z,100.00
2022-11-20T23:21:28.479Z,100.00
2022-11-20T23:23:57.331Z,100.00
2022-11-20T23:26:26.815Z,100.00
2022-11-20T23:28:54.374Z,100.00
2022-11-20T23:31:21.218Z,100.00
2022-11-20T23:33:47.667Z,100.00
2022-11-20T23:36:14.746Z,100.00
2022-11-20T23:38:41.252Z,100.00
2022-11-20T23:41:08.029Z,100.00
2022-11-20T23:43:34.522Z,100.00
2022-11-20T23:46:01.967Z,100.00
2022-11-20T23:48:30.570Z,100.00
2022-11-20T23:50:57.012Z,100.00
2022-11-20T23:53:24.314Z,100.00
2022-11-20T23:55:53.187Z,100.00
2022-11-20T23:58:21.238Z,100.00
